Abuja, Nigeria

4:33 AM WAT on February 27, 2017 (GMT +0100)
Nnamdi Azikiwe International | | Change Station

Elev 1122 ft 9.01 °N, 7.26 °E | Updated 33 minutes ago

Clear
Clear
81 °F
Feels Like 81 °F
N
4
Wind Variable Wind from East

Today
High -- | Low -- °F
--% Chance of Precip.
Yesterday
High -- | Low -- °F
Precip. -- in
Pressure 29.83 in
Visibility 4.3 miles
Clouds
Dew Point 37 °F
Humidity 21%
Rainfall 0.00 in
Snow Depth Not available.
6:46 AM 6:42 PM
New Moon, 0% visible
METAR DNAA 270300Z 08003KT 7000 NSC 27/03 Q1010 NOSIG
Pressure 29.83 in
Visibility 4.3 miles
Clouds
Dew Point 37 °F
Humidity 21%
Rainfall 0.00 in
Snow Depth Not available.
6:46 AM 6:42 PM
New Moon, 0% visible
METAR DNAA 270300Z 08003KT 7000 NSC 27/03 Q1010 NOSIG

Get Your Daily Forecast Email!

Thanks for signing up!

Be on the lookout for a verification email in your inbox.

You'll start receiving the daily forecast at 8 AM.

×

10-Day Weather Forecast

No radar image for this location.
×

Almanac

Astronomy

Feb. 27, 2017 Rise Set
Actual Time
Civil Twilight
Nautical Twilight
Astronomical Twilight
Moon
Length of Visible Light
Length of Day
Tomorrow will be .
, % of the Moon is Illuminated

Today's Extremes

Country Highs Country Lows

Community

WunderPhotos

Upload Photos

1,962,540 photos uploaded!

WunderBlog® & News

Nearby

Air Quality

  Air Quality AQ Index Pollutant
Not available.

Snow Depth

Station Depth Elevation

Earthquake Activity

City Distance Mag. Time & Date
Minimum magnitude displayed is 2.5.

Coastal Water Temperatures

Place Temperature

Stations

Nearby Weather Stations

Station Location Temp. Windchill Dew Point Humidity Wind Precip. Elev Updated Type